Time;durP1;ratioP1;P1;durP2;ratioP2;P2;SDS_P1;SDS_P2;PMS_P1;PMS_P2;Temp;Humidity;BMP_temperature;BMP_pressure;BME280_temperature;BME280_humidity;BME280_pressure;Samples;Min_cycle;Max_cycle;Signal;HPM_P1;HPM_P2
2023/05/12 00:00:16;;;;;;;41.45;25.00;;;13.40;99.90;;;-144.05;91.45;56989.00;5015406;28;20032;-79
2023/05/12 00:02:43;;;;;;;42.67;25.40;;;13.50;99.90;;;-144.05;91.43;56935.91;5016138;28;20426;-78
2023/05/12 00:05:09;;;;;;;41.53;26.25;;;13.40;99.90;;;-144.05;91.13;56952.91;5015967;28;20053;-79
2023/05/12 00:07:35;;;;;;;41.63;25.30;;;13.50;99.90;;;-144.05;91.16;56950.78;5015679;28;20044;-78
2023/05/12 00:10:01;;;;;;;43.47;27.65;;;13.50;99.90;;;-144.05;91.35;56938.03;5014751;28;20025;-78
2023/05/12 00:12:27;;;;;;;40.78;25.60;;;13.50;99.90;;;-144.05;91.27;56950.78;5014817;28;20034;-78
2023/05/12 00:14:54;;;;;;;40.15;25.48;;;13.50;99.90;;;-144.05;91.35;56931.66;5014162;28;20026;-79
2023/05/12 00:17:20;;;;;;;45.97;25.95;;;13.50;99.90;;;-144.05;91.38;56946.53;5014459;28;20463;-80
2023/05/12 00:19:47;;;;;;;40.17;26.00;;;13.40;99.90;;;-144.05;91.61;56952.91;5014916;28;20112;-78
2023/05/12 00:22:14;;;;;;;38.67;24.33;;;13.50;99.90;;;-144.05;91.23;56957.16;5015139;28;20428;-79
2023/05/12 00:24:40;;;;;;;40.78;26.17;;;13.50;99.90;;;-144.05;91.27;56967.78;5014897;28;20108;-79
2023/05/12 00:27:06;;;;;;;40.95;25.08;;;13.50;99.90;;;-144.05;91.95;56950.78;5014852;28;20026;-78
2023/05/12 00:29:33;;;;;;;42.08;25.95;;;13.50;99.90;;;-144.05;91.58;56950.78;5013687;28;20405;-79
2023/05/12 00:31:59;;;;;;;40.35;25.52;;;13.40;99.90;;;-144.05;92.61;56976.28;4997581;28;20034;-79
2023/05/12 00:34:27;;;;;;;45.00;26.70;;;13.50;99.90;;;-144.05;92.31;56948.66;4997089;28;20030;-78
2023/05/12 00:36:53;;;;;;;43.75;27.08;;;13.40;99.90;;;-144.05;92.18;56965.66;4997290;28;20036;-79
2023/05/12 00:39:18;;;;;;;38.80;23.48;;;13.40;99.90;;;-144.05;91.43;56940.16;5014321;28;20464;-78
2023/05/12 00:41:46;;;;;;;39.25;23.77;;;13.40;99.90;;;-144.05;91.89;56984.78;5014043;28;20045;-79
2023/05/12 00:44:12;;;;;;;40.08;24.13;;;13.40;99.90;;;-144.05;91.84;56952.91;5014298;28;20022;-79
2023/05/12 00:46:38;;;;;;;39.50;22.98;;;13.40;99.90;;;-144.05;91.27;56948.66;5014367;28;20095;-79
2023/05/12 00:49:06;;;;;;;42.55;24.15;;;13.30;99.90;;;-144.05;90.98;56967.78;5014057;28;20022;-78
2023/05/12 00:51:32;;;;;;;40.85;23.33;;;13.30;99.90;;;-144.05;91.42;56972.03;4996638;28;20025;-77
2023/05/12 00:53:58;;;;;;;37.63;23.23;;;13.30;99.90;;;-144.05;91.89;56957.16;5014264;28;20095;-77
2023/05/12 00:56:24;;;;;;;38.15;23.88;;;13.30;99.90;;;-144.05;91.71;56935.91;5014540;28;20521;-78
2023/05/12 00:58:50;;;;;;;36.75;22.67;;;13.30;99.90;;;-144.05;91.81;56946.53;5013874;28;20033;-77
2023/05/12 01:01:16;;;;;;;37.80;23.20;;;13.40;99.90;;;-144.05;91.66;56980.53;5014216;28;20378;-77
2023/05/12 01:03:44;;;;;;;37.55;22.27;;;13.30;99.90;;;-144.05;91.51;56967.78;5021006;28;20022;-77
2023/05/12 01:06:35;;;;;;;36.88;22.13;;;13.30;99.90;;;-144.05;92.03;56965.66;5027250;28;20034;-78
2023/05/12 01:09:02;;;;;;;37.00;22.88;;;13.30;99.90;;;-144.05;91.33;56963.53;5015339;28;20037;-78
2023/05/12 01:11:28;;;;;;;38.30;21.52;;;13.30;99.90;;;-144.05;91.48;56957.16;5017862;28;20111;-79
2023/05/12 01:13:54;;;;;;;37.13;23.17;;;13.30;99.90;;;-144.05;92.13;56948.66;5018607;28;20057;-77
2023/05/12 01:16:30;;;;;;;37.78;21.92;;;13.30;99.90;;;-144.05;91.45;56938.03;5016748;28;20049;-79
2023/05/12 01:18:58;;;;;;;37.28;22.23;;;13.30;99.90;;;-144.05;91.82;56925.28;5017766;28;20030;-77
2023/05/12 01:21:24;;;;;;;34.97;21.95;;;13.30;99.90;;;-144.05;91.73;56938.03;5000474;28;20460;-79
2023/05/12 01:24:08;;;;;;;37.65;22.83;;;13.30;99.90;;;-144.05;91.58;56972.03;5018931;28;20045;-78
2023/05/12 01:26:34;;;;;;;35.88;21.17;;;13.30;99.90;;;-144.05;91.18;56959.28;5019174;28;20084;-77
2023/05/12 01:29:03;;;;;;;37.20;22.90;;;13.20;99.90;;;-144.05;91.30;56955.03;4999690;28;20055;-80
2023/05/12 01:31:31;;;;;;;35.50;22.60;;;13.20;99.90;;;-144.05;91.29;56961.41;4999731;28;20606;-77
2023/05/12 01:33:57;;;;;;;35.10;21.27;;;13.20;99.90;;;-144.05;91.06;56952.91;5017133;28;20034;-78
2023/05/12 01:36:23;;;;;;;36.95;21.15;;;13.20;99.90;;;-144.05;91.18;56961.41;5017400;28;20073;-77
2023/05/12 01:38:49;;;;;;;33.53;21.25;;;13.20;99.90;;;-144.05;91.00;56944.41;5017056;28;20493;-78
2023/05/12 01:41:15;;;;;;;34.30;20.92;;;13.10;99.90;;;-144.05;90.87;56944.41;5019070;28;20508;-78
2023/05/12 01:43:41;;;;;;;32.10;20.08;;;13.20;99.90;;;-144.05;90.67;56955.03;5021815;28;20076;-80
2023/05/12 01:46:07;;;;;;;30.33;19.95;;;13.20;99.90;;;-144.05;90.61;56959.28;5017766;28;20033;-78
2023/05/12 01:48:32;;;;;;;34.28;20.48;;;13.10;99.90;;;-144.05;90.52;56963.53;5018148;28;20049;-78
2023/05/12 01:51:01;;;;;;;30.23;18.98;;;13.10;99.90;;;-144.05;90.40;56961.41;5016952;28;20557;-76
2023/05/12 01:53:28;;;;;;;31.27;18.65;;;13.10;99.90;;;-144.05;90.13;56952.91;5017029;28;20389;-76
2023/05/12 01:55:53;;;;;;;35.70;19.27;;;13.10;99.90;;;-144.05;90.47;56969.91;5016198;28;20029;-78
2023/05/12 01:58:19;;;;;;;31.60;18.60;;;13.10;99.90;;;-144.05;90.35;56946.53;5014653;28;20033;-77
2023/05/12 02:00:45;;;;;;;29.65;17.70;;;13.00;99.90;;;-144.05;90.15;56950.78;5016625;28;20529;-78
2023/05/12 02:03:11;;;;;;;28.52;16.67;;;13.10;99.90;;;-144.05;89.89;56963.53;5016734;28;20038;-78
2023/05/12 02:05:36;;;;;;;29.40;17.38;;;13.00;99.90;;;-144.05;90.42;56961.41;4999234;28;20076;-78
2023/05/12 02:08:03;;;;;;;28.33;18.05;;;13.00;99.90;;;-144.05;90.25;56948.66;5016488;28;20065;-78
2023/05/12 02:10:29;;;;;;;26.17;16.88;;;13.00;99.90;;;-144.05;90.82;56965.66;4998991;28;20026;-78
2023/05/12 02:12:55;;;;;;;26.30;17.15;;;13.00;99.90;;;-144.05;91.07;56967.78;4998550;28;20034;-78
2023/05/12 02:15:21;;;;;;;28.52;17.02;;;13.00;99.90;;;-144.05;90.31;56950.78;4998932;28;20723;-78
2023/05/12 02:17:47;;;;;;;27.35;17.20;;;13.00;99.90;;;-144.05;90.72;56963.53;5015953;28;20030;-78
2023/05/12 02:20:12;;;;;;;29.52;18.05;;;13.00;99.90;;;-144.05;90.92;56957.16;5016123;28;20029;-77
2023/05/12 02:22:38;;;;;;;32.97;18.92;;;13.00;99.90;;;-144.05;90.52;56946.53;4997694;28;20041;-77
2023/05/12 02:25:05;;;;;;;30.58;19.35;;;12.90;99.90;;;-144.05;91.15;56986.91;5016813;28;20030;-77
2023/05/12 02:27:31;;;;;;;32.42;20.48;;;12.90;99.90;;;-144.05;91.07;56961.41;5015780;28;20030;-77
2023/05/12 02:29:57;;;;;;;34.15;20.95;;;12.90;99.90;;;-144.05;90.88;56974.16;5015381;28;20366;-77
2023/05/12 02:32:26;;;;;;;36.10;21.70;;;13.00;99.90;;;-144.05;90.73;56961.41;5015036;28;20030;-77
2023/05/12 02:34:54;;;;;;;31.90;19.75;;;12.90;99.90;;;-144.05;90.47;56940.16;5014419;28;20025;-76
2023/05/12 02:37:20;;;;;;;35.80;21.17;;;12.90;99.90;;;-144.05;90.63;56967.78;5014820;28;20116;-77
2023/05/12 02:39:46;;;;;;;43.42;22.63;;;12.90;99.90;;;-144.05;90.62;56959.28;5014768;28;20121;-77
2023/05/12 02:42:12;;;;;;;33.25;20.45;;;12.90;99.90;;;-144.05;91.32;56942.28;4997256;28;20121;-78
2023/05/12 02:44:38;;;;;;;36.40;22.25;;;12.90;99.90;;;-144.05;90.73;56963.53;5014613;28;20030;-78
2023/05/12 02:47:04;;;;;;;37.80;22.35;;;12.90;99.90;;;-144.05;90.87;56965.66;5015457;28;20116;-79
2023/05/12 02:49:31;;;;;;;33.20;20.00;;;12.90;99.90;;;-144.05;90.97;56950.78;5014867;28;20041;-79
2023/05/12 02:51:57;;;;;;;32.10;19.38;;;12.80;99.90;;;-144.05;90.66;56959.28;5015073;28;20049;-78
2023/05/12 02:54:22;;;;;;;32.17;18.75;;;12.80;99.90;;;-144.05;91.02;56948.66;4997208;28;20484;-79
2023/05/12 02:56:48;;;;;;;35.58;18.95;;;12.80;99.90;;;-144.05;90.98;56946.53;4996669;28;20042;-77
2023/05/12 02:59:14;;;;;;;32.65;19.90;;;12.80;99.90;;;-144.05;91.33;56967.78;5014691;28;20065;-77
2023/05/12 03:01:40;;;;;;;30.90;18.48;;;12.80;99.90;;;-144.05;90.65;56942.28;5014844;28;20034;-76
2023/05/12 03:04:06;;;;;;;31.65;18.98;;;12.80;99.90;;;-144.05;90.68;56961.41;4996929;28;20113;-77
2023/05/12 03:06:32;;;;;;;30.58;17.05;;;12.80;99.90;;;-144.05;90.20;56944.41;5014276;28;20442;-77
2023/05/12 03:08:58;;;;;;;23.70;15.85;;;12.70;99.90;;;-144.05;90.64;56969.91;5014498;28;20040;-77
2023/05/12 03:11:25;;;;;;;24.70;15.55;;;12.70;99.90;;;-144.05;90.44;56972.03;5014106;28;20022;-77
2023/05/12 03:13:50;;;;;;;22.95;14.52;;;12.70;99.90;;;-144.05;89.90;56923.19;5015177;28;20554;-78
2023/05/12 03:16:17;;;;;;;22.85;15.35;;;12.70;99.90;;;-144.05;90.08;56946.53;5014973;28;20029;-78
2023/05/12 03:18:43;;;;;;;22.33;14.73;;;12.70;99.90;;;-144.05;90.21;56974.16;5015763;28;20022;-78
2023/05/12 03:21:09;;;;;;;21.95;15.20;;;12.70;99.90;;;-144.05;89.86;56950.78;5014698;28;20118;-78
2023/05/12 03:23:35;;;;;;;19.98;13.48;;;12.70;99.90;;;-144.05;90.30;56950.78;5015669;28;20057;-78
2023/05/12 03:26:01;;;;;;;21.35;15.05;;;12.70;99.90;;;-144.05;90.13;56952.91;5027135;28;20442;-77
2023/05/12 03:28:27;;;;;;;21.63;14.82;;;12.70;99.90;;;-144.05;89.78;56984.78;5020771;28;20030;-79
2023/05/12 03:30:53;;;;;;;20.88;13.68;;;12.60;99.90;;;-144.05;89.57;56959.28;5019314;28;20385;-79
2023/05/12 03:33:19;;;;;;;22.45;14.15;;;12.60;99.90;;;-144.05;89.81;56959.28;4998224;28;20363;-79
2023/05/12 03:35:44;;;;;;;21.67;13.50;;;12.60;99.90;;;-144.05;89.57;56950.78;5015187;28;20037;-79
2023/05/12 03:38:11;;;;;;;18.73;13.23;;;12.60;99.90;;;-144.05;89.55;56978.41;5016668;28;20101;-80
2023/05/12 03:40:36;;;;;;;19.10;13.30;;;12.60;99.90;;;-144.05;89.14;56955.03;5016896;28;20072;-79
2023/05/12 03:43:02;;;;;;;20.73;13.18;;;12.60;99.90;;;-144.05;89.96;56944.41;5017076;28;20021;-78
2023/05/12 03:45:28;;;;;;;20.25;13.75;;;12.60;99.90;;;-144.05;89.61;56976.28;5015765;28;20084;-78
2023/05/12 03:47:54;;;;;;;17.88;12.32;;;12.60;99.90;;;-144.05;89.24;56938.03;5022619;28;20010;-78
2023/05/12 03:50:20;;;;;;;16.60;12.00;;;12.60;99.90;;;-144.05;89.03;56944.41;5030312;28;20030;-78
2023/05/12 03:52:45;;;;;;;16.33;11.90;;;12.60;99.90;;;-144.05;88.63;56974.16;5031085;28;20029;-79
2023/05/12 03:55:12;;;;;;;17.55;12.85;;;12.60;99.90;;;-144.05;88.96;56974.16;5028056;28;20026;-78
2023/05/12 03:57:38;;;;;;;17.05;11.55;;;12.60;99.90;;;-144.05;89.26;56967.78;5024659;28;20072;-78
2023/05/12 04:00:06;;;;;;;15.68;11.13;;;12.50;99.90;;;-144.05;88.96;56944.41;5023708;28;20053;-78
2023/05/12 04:02:31;;;;;;;15.10;11.00;;;12.50;99.90;;;-144.05;88.46;56967.78;5024626;28;20045;-77
2023/05/12 04:04:57;;;;;;;15.70;10.75;;;12.50;99.90;;;-144.05;88.34;56980.53;5010108;28;20461;-78
2023/05/12 04:07:23;;;;;;;15.23;10.13;;;12.60;99.90;;;-144.05;88.40;56955.03;5004655;28;20109;-75
2023/05/12 04:09:49;;;;;;;13.30;10.18;;;12.50;99.90;;;-144.05;88.13;56965.66;5013174;28;20080;-76
2023/05/12 04:12:15;;;;;;;13.45;9.35;;;12.50;99.90;;;-144.05;88.56;56969.91;5013363;28;20030;-75
2023/05/12 04:14:41;;;;;;;15.57;9.48;;;12.50;99.90;;;-144.05;87.76;56963.53;5014791;28;20050;-76
2023/05/12 04:17:06;;;;;;;12.45;8.48;;;12.50;99.90;;;-144.05;87.37;56967.78;5022762;28;20029;-76
2023/05/12 04:19:33;;;;;;;12.23;8.73;;;12.50;99.90;;;-144.05;86.94;56957.16;5021686;28;20153;-78
2023/05/12 04:21:58;;;;;;;12.60;8.90;;;12.50;99.90;;;-144.05;87.04;56961.41;5016550;28;20029;-79
2023/05/12 04:24:25;;;;;;;12.70;9.35;;;12.50;99.90;;;-144.05;86.49;56948.66;4996141;28;20030;-77
2023/05/12 04:26:51;;;;;;;14.48;9.02;;;12.50;99.90;;;-144.05;86.76;56959.28;5013802;28;20021;-77
2023/05/12 04:29:17;;;;;;;15.10;8.95;;;12.50;99.90;;;-144.05;86.26;56974.16;5014841;28;20026;-78
2023/05/12 04:31:43;;;;;;;11.48;8.02;;;12.50;99.90;;;-144.05;86.21;56948.66;5028675;28;20065;-78
2023/05/12 04:34:09;;;;;;;11.23;7.03;;;12.60;99.90;;;-144.05;85.87;56974.16;5015232;28;20030;-75
2023/05/12 04:36:35;;;;;;;11.10;7.13;;;12.60;99.90;;;-144.05;85.68;56929.53;5026674;28;20030;-77
2023/05/12 04:39:00;;;;;;;10.23;7.93;;;12.60;99.90;;;-144.05;85.12;56957.16;5001168;28;20022;-79
2023/05/12 04:41:26;;;;;;;9.02;7.20;;;12.60;99.90;;;-144.05;85.43;56942.28;4997954;28;20036;-77
2023/05/12 04:43:52;;;;;;;10.50;8.15;;;12.60;99.90;;;-144.05;85.09;56938.03;5014809;28;20098;-78
2023/05/12 04:46:18;;;;;;;13.63;8.50;;;12.60;99.90;;;-144.05;85.36;56974.16;4995127;28;20481;-75
2023/05/12 04:48:44;;;;;;;12.25;9.63;;;12.70;99.90;;;-144.05;85.53;56961.41;4995723;28;20111;-76
2023/05/12 04:51:09;;;;;;;12.98;9.77;;;12.60;99.90;;;-144.05;85.24;56974.16;5014367;28;20037;-77
2023/05/12 04:53:35;;;;;;;15.82;10.90;;;12.70;99.90;;;-144.05;85.62;56950.78;4996650;28;20037;-78
2023/05/12 04:56:02;;;;;;;13.07;9.43;;;12.70;99.90;;;-144.05;85.49;56965.66;4996850;28;20058;-78
2023/05/12 04:58:28;;;;;;;14.93;10.98;;;12.70;99.90;;;-144.05;85.72;56952.91;5015005;28;20041;-77
2023/05/12 05:00:54;;;;;;;14.63;10.35;;;12.80;99.90;;;-144.05;85.47;56950.78;4996539;28;20046;-77
2023/05/12 05:03:20;;;;;;;15.90;11.13;;;12.80;99.90;;;-144.05;85.79;56957.16;5014111;28;20440;-75
2023/05/12 05:05:46;;;;;;;14.05;10.52;;;12.80;99.90;;;-144.05;85.71;56961.41;5013074;28;20215;-77
2023/05/12 05:08:11;;;;;;;15.20;11.13;;;12.70;99.90;;;-144.05;85.55;56957.16;5012984;28;20049;-77
2023/05/12 05:10:37;;;;;;;12.80;10.45;;;12.80;99.90;;;-144.05;85.98;56955.03;5015055;28;20084;-77
2023/05/12 05:13:03;;;;;;;14.70;10.38;;;12.80;99.90;;;-144.05;86.02;56972.03;4996398;28;20041;-77
2023/05/12 05:15:29;;;;;;;14.10;10.70;;;12.80;99.90;;;-144.05;85.79;56967.78;4996954;28;20030;-76
2023/05/12 05:17:55;;;;;;;13.10;10.55;;;12.80;99.90;;;-144.05;85.56;56955.03;5014949;28;20022;-76
2023/05/12 05:20:21;;;;;;;13.52;9.63;;;12.80;99.90;;;-144.05;85.80;56976.28;5014005;28;20073;-76
2023/05/12 05:22:47;;;;;;;13.57;9.82;;;12.90;99.90;;;-144.05;85.44;56944.41;5014341;28;20050;-76
2023/05/12 05:25:13;;;;;;;15.40;10.15;;;12.90;99.90;;;-144.05;85.76;56948.66;5015090;28;20026;-76
2023/05/12 05:27:39;;;;;;;13.00;9.25;;;12.80;99.90;;;-144.05;85.35;56952.91;5013805;28;20110;-76
2023/05/12 05:30:09;;;;;;;12.10;9.50;;;12.90;99.90;;;-144.05;85.36;56972.03;4996812;28;20066;-76
2023/05/12 05:32:38;;;;;;;12.07;8.48;;;12.90;99.90;;;-144.05;85.02;56959.28;4999703;28;20393;-79
2023/05/12 05:35:07;;;;;;;11.35;8.48;;;12.90;99.90;;;-144.05;84.71;56965.66;5014366;28;20026;-79
2023/05/12 05:37:33;;;;;;;10.25;9.02;;;13.00;99.90;;;-144.05;84.42;56946.53;4999281;28;20030;-78
2023/05/12 05:39:59;;;;;;;11.20;8.35;;;13.10;99.90;;;-144.05;84.35;56959.28;5014006;28;20107;-79
2023/05/12 05:42:24;;;;;;;14.35;9.05;;;13.10;99.90;;;-144.05;83.74;56972.03;5014124;28;20038;-78
2023/05/12 05:44:50;;;;;;;14.13;8.82;;;13.10;99.90;;;-144.05;83.24;56955.03;5013627;28;20025;-77
2023/05/12 05:47:16;;;;;;;14.25;7.90;;;13.20;99.90;;;-144.05;83.15;56955.03;5026208;28;20137;-76
2023/05/12 05:49:42;;;;;;;9.93;7.80;;;13.30;99.90;;;-144.05;83.34;56972.03;5023232;28;20036;-79
2023/05/12 05:52:08;;;;;;;12.20;8.23;;;13.30;99.90;;;-144.05;82.55;56978.41;5018513;28;20025;-77
2023/05/12 05:54:34;;;;;;;13.55;6.95;;;13.40;99.90;;;-144.05;82.38;56938.03;5014909;28;20030;-77
2023/05/12 05:57:01;;;;;;;10.68;7.35;;;13.30;99.90;;;-144.05;82.08;56942.28;5015706;28;20049;-76
2023/05/12 05:59:28;;;;;;;9.10;6.38;;;13.40;99.90;;;-144.05;82.02;56967.78;5016441;28;20030;-78
2023/05/12 06:01:53;;;;;;;11.45;7.00;;;13.30;99.90;;;-144.05;81.99;56957.16;5019491;28;20513;-77
2023/05/12 06:04:19;;;;;;;8.60;6.97;;;13.30;99.90;;;-144.05;81.90;56961.41;5018198;28;20026;-77
2023/05/12 06:06:45;;;;;;;8.73;6.72;;;13.30;99.90;;;-144.05;83.09;56940.16;5018088;28;20057;-77
2023/05/12 06:09:11;;;;;;;10.27;7.05;;;13.20;99.90;;;-144.05;83.13;56974.16;5018417;28;20026;-77
2023/05/12 06:11:38;;;;;;;10.07;7.00;;;13.20;99.90;;;-144.05;82.34;56978.41;5019187;28;20388;-76
2023/05/12 06:14:04;;;;;;;10.85;7.40;;;13.30;99.90;;;-144.05;81.89;56965.66;5019940;28;20029;-78
2023/05/12 06:16:30;;;;;;;8.98;7.05;;;13.30;99.90;;;-144.05;81.60;56955.03;5021990;28;20033;-78
2023/05/12 06:18:56;;;;;;;6.97;6.28;;;13.30;99.90;;;-144.05;81.31;56933.78;5003923;28;20026;-77
2023/05/12 06:21:22;;;;;;;10.07;7.03;;;13.40;99.90;;;-144.05;81.75;56955.03;5003514;28;20109;-77
2023/05/12 06:23:50;;;;;;;8.82;6.22;;;13.30;99.90;;;-144.05;82.02;56950.78;5019629;28;20041;-76
2023/05/12 06:26:16;;;;;;;8.85;6.20;;;13.20;99.90;;;-144.05;82.24;56965.66;5019667;28;20073;-77
2023/05/12 06:28:41;;;;;;;9.45;6.47;;;13.20;99.90;;;-144.05;82.79;56946.53;5002558;28;20030;-78
2023/05/12 06:31:07;;;;;;;9.73;6.97;;;13.30;99.90;;;-144.05;82.20;56955.03;5002121;28;20370;-78
2023/05/12 06:33:34;;;;;;;9.35;6.55;;;13.30;99.90;;;-144.05;82.19;56959.28;5019173;28;20033;-76
2023/05/12 06:35:59;;;;;;;10.52;5.60;;;13.30;99.90;;;-144.05;81.94;56967.78;5018399;28;20096;-77
2023/05/12 06:38:25;;;;;;;10.43;6.40;;;13.30;99.90;;;-144.05;81.83;56976.28;5019119;28;20030;-77
2023/05/12 06:40:51;;;;;;;12.90;6.65;;;13.30;99.90;;;-144.05;82.47;56938.03;5018629;28;20030;-78
2023/05/12 06:43:17;;;;;;;9.75;6.28;;;13.20;99.90;;;-144.05;81.50;56963.53;5019573;28;20030;-79
2023/05/12 06:45:43;;;;;;;6.80;6.10;;;13.30;99.90;;;-144.05;81.57;56940.16;5021491;28;20025;-79
2023/05/12 06:48:09;;;;;;;9.55;6.85;;;13.30;99.90;;;-144.05;81.35;56967.78;5020655;28;20363;-77
2023/05/12 06:50:35;;;;;;;7.43;5.35;;;13.40;99.90;;;-144.05;80.87;56952.91;5019974;28;20030;-76
2023/05/12 06:53:01;;;;;;;9.02;6.05;;;13.30;99.90;;;-144.05;80.67;56952.91;5021632;28;20041;-78
2023/05/12 06:55:27;;;;;;;6.70;5.78;;;13.30;99.90;;;-144.05;81.29;56976.28;5019004;28;20045;-77
2023/05/12 06:57:54;;;;;;;10.52;6.03;;;13.30;99.90;;;-144.05;81.29;56965.66;5019436;28;20509;-77
2023/05/12 07:00:25;;;;;;;7.55;6.35;;;13.40;99.90;;;-144.05;80.71;56984.78;5020041;28;20026;-77
2023/05/12 07:02:52;;;;;;;8.45;5.70;;;13.40;99.90;;;-144.05;80.49;56989.00;5018884;28;20030;-77
2023/05/12 07:05:18;;;;;;;7.72;6.25;;;13.30;99.90;;;-144.05;80.65;56944.41;5019281;28;20589;-77
2023/05/12 07:07:44;;;;;;;9.30;5.50;;;13.30;99.90;;;-144.05;80.87;56965.66;5017995;28;20571;-76
2023/05/12 07:10:10;;;;;;;14.75;6.68;;;13.30;99.90;;;-144.05;80.87;56942.28;5000984;28;20268;-78
2023/05/12 07:12:37;;;;;;;11.35;6.75;;;13.30;99.90;;;-144.05;81.16;56946.53;4999550;28;20040;-79
2023/05/12 07:15:04;;;;;;;10.85;5.90;;;13.30;99.90;;;-144.05;80.74;56974.16;5020300;28;20056;-80
2023/05/12 07:17:30;;;;;;;8.60;5.50;;;13.30;99.90;;;-144.05;80.29;56967.78;5018391;28;20052;-80
2023/05/12 07:19:56;;;;;;;6.80;5.10;;;13.40;99.90;;;-144.05;80.09;56957.16;5016472;28;20030;-77
2023/05/12 07:22:22;;;;;;;8.73;5.43;;;13.40;99.90;;;-144.05;79.63;56976.28;5017410;28;20022;-80
2023/05/12 07:24:49;;;;;;;7.47;5.25;;;13.40;99.90;;;-144.05;79.32;56955.03;5018793;28;20088;-79
2023/05/12 07:27:16;;;;;;;8.68;5.68;;;13.40;99.90;;;-144.05;79.00;56989.00;5019590;28;20109;-78
2023/05/12 07:29:42;;;;;;;8.07;4.85;;;13.40;99.90;;;-144.05;78.68;56963.53;5017771;28;20134;-77
2023/05/12 07:32:08;;;;;;;6.65;5.10;;;13.40;99.90;;;-144.05;78.27;56950.78;5017194;28;20101;-77
2023/05/12 07:34:33;;;;;;;8.43;5.13;;;13.50;99.90;;;-144.05;78.56;56950.78;5018247;28;20034;-79
2023/05/12 07:37:01;;;;;;;6.45;4.68;;;13.50;99.90;;;-144.05;78.70;56950.78;5018195;28;20096;-77
2023/05/12 07:39:29;;;;;;;6.57;5.38;;;13.50;99.90;;;-144.05;78.62;56955.03;5017593;28;20089;-77
2023/05/12 07:41:55;;;;;;;6.43;4.22;;;13.50;99.90;;;-144.05;78.23;56948.66;5019089;28;20033;-79
2023/05/12 07:44:21;;;;;;;6.93;4.95;;;13.50;99.90;;;-144.05;78.86;56980.53;5016965;28;20100;-77
2023/05/12 07:46:47;;;;;;;9.40;5.50;;;13.50;99.90;;;-144.05;77.74;56959.28;5016991;28;20026;-78
2023/05/12 07:49:13;;;;;;;7.30;5.57;;;13.50;99.90;;;-144.05;78.44;56961.41;5019336;28;20093;-78
2023/05/12 07:51:38;;;;;;;6.25;4.88;;;13.60;99.90;;;-144.05;77.36;56963.53;5001239;28;20511;-77
2023/05/12 07:54:06;;;;;;;6.50;4.70;;;13.70;99.90;;;-144.05;76.75;56959.28;5018147;28;20026;-77
2023/05/12 07:56:32;;;;;;;8.15;4.78;;;13.90;99.90;;;-144.05;76.65;56965.66;5018578;28;20053;-78
2023/05/12 07:58:58;;;;;;;6.18;4.35;;;14.10;99.90;;;-144.05;76.38;56946.53;5019583;28;20026;-80
2023/05/12 08:01:24;;;;;;;5.43;4.65;;;14.30;99.90;;;-144.05;75.65;56950.78;5021104;28;20038;-78
2023/05/12 08:03:50;;;;;;;5.75;4.28;;;14.50;99.90;;;-144.05;73.64;56965.66;5019380;28;20029;-78
2023/05/12 08:06:17;;;;;;;7.20;4.47;;;14.70;99.90;;;-144.05;73.31;56961.41;5020232;28;20025;-77
2023/05/12 08:08:43;;;;;;;8.05;4.18;;;14.80;99.90;;;-144.05;71.54;56946.53;5032248;28;20029;-77
2023/05/12 08:11:10;;;;;;;5.70;4.10;;;15.10;99.90;;;-144.05;70.95;56967.78;5022594;28;20030;-77
2023/05/12 08:13:36;;;;;;;6.30;4.22;;;15.20;99.90;;;-144.05;69.88;56976.28;5018625;28;20030;-78
2023/05/12 08:16:03;;;;;;;8.35;3.58;;;15.30;99.90;;;-144.05;68.72;56948.66;5018741;28;20049;-78
2023/05/12 08:18:29;;;;;;;6.18;4.30;;;15.50;99.90;;;-144.05;68.72;56982.66;4999548;28;20033;-80
2023/05/12 08:20:55;;;;;;;5.18;4.00;;;15.50;99.90;;;-144.05;67.72;56955.03;5019268;28;20064;-79
2023/05/12 08:23:21;;;;;;;7.68;4.97;;;15.70;99.90;;;-144.05;67.64;56948.66;5020885;28;20025;-79
2023/05/12 08:25:47;;;;;;;5.20;4.13;;;15.70;99.90;;;-144.05;68.73;56933.78;5017715;28;20026;-78
2023/05/12 08:28:13;;;;;;;8.65;4.68;;;15.50;99.90;;;-144.05;68.58;56948.66;5018813;28;20029;-79
2023/05/12 08:30:41;;;;;;;5.90;4.13;;;15.60;99.90;;;-144.05;68.86;56976.28;5018009;28;20033;-80
2023/05/12 08:33:07;;;;;;;6.65;3.85;;;15.70;99.90;;;-144.05;67.16;56980.53;5020199;28;20037;-80
2023/05/12 08:35:34;;;;;;;4.00;3.20;;;15.70;99.90;;;-144.05;66.74;56950.78;5018563;28;20030;-78
2023/05/12 08:38:01;;;;;;;5.78;3.45;;;15.80;99.90;;;-144.05;66.87;56944.41;5018652;28;20037;-77
2023/05/12 08:40:36;;;;;;;4.95;3.45;;;16.00;99.90;;;-144.05;66.36;56942.28;5018857;28;20026;-78
2023/05/12 08:43:40;;;;;;;6.78;3.17;;;16.10;99.90;;;-144.05;63.91;56963.53;5016448;28;20097;-77
2023/05/12 08:46:07;;;;;;;2.83;2.55;;;16.20;99.90;;;-144.05;64.14;56965.66;5015710;28;20132;-78
2023/05/12 08:48:37;;;;;;;3.50;3.08;;;16.20;99.90;;;-144.05;64.52;56980.53;5017096;28;20489;-78
2023/05/12 08:51:09;;;;;;;4.05;3.38;;;16.50;99.90;;;-144.05;62.98;56967.78;5017912;28;20101;-80
2023/05/12 08:53:42;;;;;;;4.78;3.30;;;16.60;99.90;;;-144.05;62.59;56957.16;5019974;28;20088;-78
2023/05/12 08:56:10;;;;;;;4.43;3.47;;;16.70;99.90;;;-144.05;62.81;56972.03;5003464;28;20041;-80
2023/05/12 08:58:37;;;;;;;4.80;2.88;;;16.80;99.90;;;-144.05;62.58;56955.03;5001197;28;20025;-77
2023/05/12 09:01:06;;;;;;;5.32;3.70;;;16.80;99.90;;;-144.05;61.99;56957.16;5019587;28;20034;-77
2023/05/12 09:03:33;;;;;;;3.75;2.83;;;17.00;99.90;;;-144.05;60.13;56965.66;5018662;28;20029;-78
2023/05/12 09:06:02;;;;;;;4.65;3.30;;;17.00;99.90;;;-144.05;61.19;56969.91;5019770;28;20164;-80
2023/05/12 09:08:31;;;;;;;4.93;3.55;;;16.90;99.90;;;-144.05;61.44;56974.16;5000932;28;20117;-78
2023/05/12 09:10:59;;;;;;;6.53;4.07;;;17.00;99.90;;;-144.05;61.21;56969.91;5018774;28;20050;-78
2023/05/12 09:13:51;;;;;;;9.15;3.95;;;16.90;99.90;;;-144.05;61.60;56980.53;5018147;28;20044;-76
2023/05/12 09:16:23;;;;;;;11.02;3.95;;;16.90;99.90;;;-144.05;61.87;56967.78;5019315;28;20257;-79
2023/05/12 09:18:56;;;;;;;6.63;2.63;;;16.80;99.90;;;-144.05;62.57;56976.28;5002438;28;20044;-78
2023/05/12 09:21:23;;;;;;;3.85;2.80;;;16.80;99.90;;;-144.05;61.97;56982.66;4999968;28;20085;-78
2023/05/12 09:24:04;;;;;;;6.68;3.60;;;17.00;99.90;;;-144.05;60.75;56993.25;5019260;28;20365;-77
2023/05/12 09:26:44;;;;;;;4.65;3.45;;;17.20;99.90;;;-144.05;60.26;56972.03;5000821;28;20117;-81
2023/05/12 09:29:11;;;;;;;6.22;2.85;;;17.30;99.90;;;-144.05;59.01;56969.91;4999073;28;20026;-78
2023/05/12 09:31:37;;;;;;;3.40;2.80;;;17.30;99.90;;;-144.05;59.61;56978.41;5001998;28;20405;-78
2023/05/12 09:34:08;;;;;;;6.22;3.83;;;17.50;99.90;;;-144.05;59.36;56982.66;5020602;28;20040;-78
2023/05/12 09:36:35;;;;;;;4.55;3.30;;;17.50;99.90;;;-144.05;59.24;56974.16;5022535;28;20486;-80
2023/05/12 09:39:06;;;;;;;3.33;3.00;;;17.30;99.90;;;-144.05;59.50;56978.41;5022353;28;20044;-79
2023/05/12 09:41:37;;;;;;;4.28;3.47;;;17.10;99.90;;;-144.05;60.03;56976.28;5021770;28;20132;-78
2023/05/12 09:44:05;;;;;;;6.63;2.85;;;17.10;99.90;;;-144.05;60.12;56967.78;5007152;28;20076;-80
2023/05/12 09:46:31;;;;;;;5.05;3.67;;;17.00;99.90;;;-144.05;60.06;56982.66;5020686;28;20508;-78
2023/05/12 09:48:58;;;;;;;5.75;3.40;;;17.10;99.90;;;-144.05;60.28;56978.41;5001361;28;20030;-78
2023/05/12 09:51:25;;;;;;;5.32;3.15;;;17.30;99.90;;;-144.05;59.38;56974.16;5000514;28;20036;-78
2023/05/12 09:53:52;;;;;;;5.00;3.50;;;17.30;99.90;;;-144.05;59.12;56965.66;5017865;28;20030;-78
2023/05/12 09:56:18;;;;;;;5.38;3.53;;;17.40;99.90;;;-144.05;58.54;57001.75;5041450;23;20564;31